createdAt,value
2022-10-01T00:01:10.177Z,58.00
2022-10-01T00:03:36.748Z,78.63
2022-10-01T00:06:03.040Z,87.60
2022-10-01T00:08:29.359Z,68.20
2022-10-01T00:10:55.668Z,53.05
2022-10-01T00:13:21.915Z,45.20
2022-10-01T00:15:48.171Z,50.70
2022-10-01T00:18:14.420Z,50.20
2022-10-01T00:20:43.439Z,50.00
2022-10-01T00:23:09.694Z,58.65
2022-10-01T00:25:36.104Z,56.13
2022-10-01T00:28:02.460Z,55.67
2022-10-01T00:30:28.772Z,55.10
2022-10-01T00:32:55.091Z,52.53
2022-10-01T00:35:22.419Z,57.85
2022-10-01T00:37:50.511Z,69.03
2022-10-01T00:40:16.774Z,76.03
2022-10-01T00:42:43.591Z,76.35
2022-10-01T00:45:09.844Z,61.08
2022-10-01T00:47:36.120Z,55.65
2022-10-01T00:50:02.460Z,47.20
2022-10-01T00:52:29.017Z,56.03
2022-10-01T00:54:55.766Z,50.33
2022-10-01T00:57:22.946Z,49.90
2022-10-01T00:59:49.581Z,54.13
2022-10-01T01:02:15.882Z,59.30
2022-10-01T01:04:42.180Z,68.85
2022-10-01T01:07:08.440Z,74.32
2022-10-01T01:09:34.716Z,61.13
2022-10-01T01:12:01.327Z,83.50
2022-10-01T01:14:27.596Z,98.40
2022-10-01T01:16:53.839Z,105.22
2022-10-01T01:19:20.695Z,90.63
2022-10-01T01:21:47.436Z,84.03
2022-10-01T01:24:13.715Z,87.65
2022-10-01T01:26:42.200Z,101.53
2022-10-01T01:29:08.518Z,71.03
2022-10-01T01:31:34.995Z,65.22
2022-10-01T01:34:01.413Z,62.92
2022-10-01T01:36:27.744Z,64.65
2022-10-01T01:38:56.988Z,60.45
2022-10-01T01:41:23.289Z,59.83
2022-10-01T01:43:49.558Z,58.13
2022-10-01T01:46:17.634Z,55.30
2022-10-01T01:48:47.499Z,53.22
2022-10-01T01:51:13.760Z,48.65
2022-10-01T01:53:40.026Z,46.03
2022-10-01T01:56:06.270Z,49.92
2022-10-01T01:58:32.524Z,47.75
2022-10-01T02:00:58.770Z,49.75
2022-10-01T02:03:25.024Z,54.60
2022-10-01T02:05:52.317Z,54.47
2022-10-01T02:08:18.580Z,53.30
2022-10-01T02:10:44.822Z,51.67
2022-10-01T02:13:11.075Z,49.45
2022-10-01T02:15:37.557Z,42.35
2022-10-01T02:18:03.818Z,38.70
2022-10-01T02:20:30.102Z,35.55
2022-10-01T02:22:58.283Z,38.20
2022-10-01T02:25:26.836Z,36.70
2022-10-01T02:27:53.541Z,39.22
2022-10-01T02:30:19.885Z,42.40
2022-10-01T02:32:46.136Z,42.15
2022-10-01T02:35:12.401Z,39.63
2022-10-01T02:37:38.691Z,44.90
2022-10-01T02:40:04.942Z,41.20
2022-10-01T02:42:31.208Z,43.05
2022-10-01T02:44:57.506Z,42.70
2022-10-01T02:47:23.746Z,40.88
2022-10-01T02:49:50.016Z,42.03
2022-10-01T02:52:16.306Z,41.20
2022-10-01T02:54:42.576Z,41.60
2022-10-01T02:57:24.406Z,43.00
2022-10-01T02:59:50.666Z,42.50
2022-10-01T03:02:16.999Z,44.78
2022-10-01T03:04:43.359Z,43.42
2022-10-01T03:07:09.612Z,42.60
2022-10-01T03:09:36.774Z,41.35
2022-10-01T03:12:02.971Z,40.40
2022-10-01T03:14:29.260Z,42.45
2022-10-01T03:16:55.506Z,42.75
2022-10-01T03:19:21.907Z,40.13
2022-10-01T03:21:48.299Z,40.75
2022-10-01T03:24:14.574Z,39.05
2022-10-01T03:26:40.819Z,39.22
2022-10-01T03:29:07.085Z,42.90
2022-10-01T03:31:33.697Z,42.33
2022-10-01T03:34:00.586Z,40.53
2022-10-01T03:36:26.834Z,38.53
2022-10-01T03:38:53.096Z,39.47
2022-10-01T03:41:19.334Z,38.05
2022-10-01T03:43:45.574Z,37.90
2022-10-01T03:46:11.912Z,39.97
2022-10-01T03:48:38.209Z,40.58
2022-10-01T03:51:04.450Z,47.92
2022-10-01T03:53:33.725Z,52.42
2022-10-01T03:55:59.962Z,47.00
2022-10-01T03:58:26.214Z,48.05
2022-10-01T04:00:52.954Z,47.55
2022-10-01T04:03:19.289Z,48.28
2022-10-01T04:05:45.567Z,50.42
2022-10-01T04:08:11.864Z,48.97
2022-10-01T04:10:38.119Z,49.03
2022-10-01T04:13:04.716Z,52.03
2022-10-01T04:15:30.996Z,52.15
2022-10-01T04:17:57.972Z,50.85
2022-10-01T04:20:24.452Z,53.03
2022-10-01T04:22:50.712Z,49.92
2022-10-01T04:25:16.983Z,50.35
2022-10-01T04:27:43.303Z,54.45
2022-10-01T04:30:09.628Z,53.40
2022-10-01T04:32:35.870Z,42.78
2022-10-01T04:35:04.316Z,52.28
2022-10-01T04:37:31.103Z,65.30
2022-10-01T04:39:57.384Z,68.47
2022-10-01T04:42:23.659Z,65.05
2022-10-01T04:44:49.855Z,73.30
2022-10-01T04:47:16.119Z,64.63
2022-10-01T04:49:42.517Z,69.55
2022-10-01T04:52:08.758Z,69.80
2022-10-01T04:54:35.008Z,66.63
2022-10-01T04:57:01.250Z,67.43
2022-10-01T04:59:27.500Z,63.40
2022-10-01T05:01:53.884Z,73.45
2022-10-01T05:04:20.174Z,70.88
2022-10-01T05:06:46.406Z,66.32
2022-10-01T05:09:12.656Z,78.40
2022-10-01T05:11:39.047Z,68.03
2022-10-01T05:14:05.311Z,67.90
2022-10-01T05:16:31.571Z,74.50
2022-10-01T05:18:58.886Z,68.60
2022-10-01T05:21:25.142Z,133.93
2022-10-01T05:23:51.744Z,90.20
2022-10-01T05:26:18.006Z,95.47
2022-10-01T05:28:47.411Z,90.07
2022-10-01T05:31:14.023Z,67.80
2022-10-01T05:33:40.350Z,62.42
2022-10-01T05:36:06.852Z,69.90
2022-10-01T05:38:37.248Z,69.30
2022-10-01T05:41:03.632Z,62.78
2022-10-01T05:43:30.566Z,59.90
2022-10-01T05:45:56.862Z,70.43
2022-10-01T05:48:23.199Z,63.33
2022-10-01T05:50:49.820Z,62.95
2022-10-01T05:53:16.126Z,60.67
2022-10-01T05:55:42.936Z,63.53
2022-10-01T05:58:12.013Z,66.60
2022-10-01T06:00:38.258Z,63.83
2022-10-01T06:03:04.746Z,67.10
2022-10-01T06:05:31.323Z,68.65
2022-10-01T06:07:57.603Z,66.00
2022-10-01T06:10:23.882Z,69.93
2022-10-01T06:12:50.163Z,68.43
2022-10-01T06:15:16.414Z,72.22
2022-10-01T06:17:45.741Z,65.97
2022-10-01T06:20:12.859Z,75.68
2022-10-01T06:22:39.037Z,74.37
2022-10-01T06:25:05.278Z,80.72
2022-10-01T06:27:31.543Z,71.57
2022-10-01T06:29:57.796Z,74.03
2022-10-01T06:32:24.043Z,77.18
2022-10-01T06:34:50.292Z,73.28
2022-10-01T06:37:17.107Z,72.18
2022-10-01T06:39:44.516Z,72.10
2022-10-01T06:42:10.779Z,81.15
2022-10-01T06:44:37.026Z,81.70
2022-10-01T06:47:03.279Z,83.07
2022-10-01T06:49:29.536Z,85.45
2022-10-01T06:52:14.168Z,84.18
2022-10-01T06:54:40.426Z,87.40
2022-10-01T06:57:07.011Z,90.35
2022-10-01T06:59:33.267Z,91.38
2022-10-01T07:01:59.585Z,97.03
2022-10-01T07:04:25.879Z,97.03
2022-10-01T07:06:52.135Z,100.00
2022-10-01T07:09:18.414Z,94.97
2022-10-01T07:11:44.682Z,79.78
2022-10-01T07:14:11.015Z,83.95
2022-10-01T07:16:37.324Z,84.55
2022-10-01T07:19:03.579Z,69.82
2022-10-01T07:21:29.984Z,63.25
2022-10-01T07:23:56.243Z,65.07
2022-10-01T07:26:22.507Z,58.35
2022-10-01T07:28:48.756Z,64.40
2022-10-01T07:31:15.039Z,59.65
2022-10-01T07:33:41.320Z,64.93
2022-10-01T07:36:07.588Z,62.05
2022-10-01T07:38:33.834Z,65.72
2022-10-01T07:41:02.433Z,68.18
2022-10-01T07:43:28.688Z,65.10
2022-10-01T07:48:46.157Z,58.97
2022-10-01T07:51:12.409Z,69.50
2022-10-01T07:53:38.684Z,73.20
2022-10-01T07:56:04.983Z,78.97
2022-10-01T07:58:31.295Z,85.57
2022-10-01T08:01:00.042Z,88.63
2022-10-01T08:03:26.363Z,80.47
2022-10-01T08:05:55.495Z,81.15
2022-10-01T08:08:21.755Z,86.28
2022-10-01T08:10:49.992Z,82.80
2022-10-01T08:13:16.262Z,82.72
2022-10-01T08:15:42.588Z,78.88
2022-10-01T08:18:08.849Z,86.93
2022-10-01T08:20:35.119Z,82.78
2022-10-01T08:23:01.381Z,98.32
2022-10-01T08:25:27.727Z,97.28
2022-10-01T08:27:54.034Z,105.45
2022-10-01T08:30:20.328Z,88.35
2022-10-01T08:32:46.585Z,120.25
2022-10-01T08:35:12.888Z,98.65
2022-10-01T08:37:39.395Z,105.88
2022-10-01T08:40:05.978Z,91.15
2022-10-01T08:42:33.306Z,120.03
2022-10-01T08:45:01.378Z,71.15
2022-10-01T08:49:53.826Z,85.13
2022-10-01T08:52:20.066Z,79.97
2022-10-01T08:54:46.469Z,71.30
2022-10-01T08:57:12.714Z,65.90
2022-10-01T08:59:39.367Z,65.72
2022-10-01T09:02:05.606Z,74.63
2022-10-01T09:04:31.979Z,79.75
2022-10-01T09:06:58.271Z,68.72
2022-10-01T09:09:24.553Z,61.33
2022-10-01T09:11:50.823Z,55.38
2022-10-01T09:14:17.079Z,57.38
2022-10-01T09:16:43.439Z,52.25
2022-10-01T09:19:10.612Z,53.42
2022-10-01T09:21:37.036Z,49.40
2022-10-01T09:24:03.401Z,46.83
2022-10-01T09:26:30.029Z,69.63
2022-10-01T09:28:56.326Z,88.13
2022-10-01T09:31:22.660Z,59.95
2022-10-01T09:33:48.966Z,67.57
2022-10-01T09:36:15.223Z,101.00
2022-10-01T09:38:41.543Z,136.75
2022-10-01T09:41:07.977Z,139.20
2022-10-01T09:43:34.222Z,103.50
2022-10-01T09:46:00.601Z,71.13
2022-10-01T09:48:27.104Z,53.85
2022-10-01T09:50:56.023Z,47.85
2022-10-01T09:53:22.291Z,46.10
2022-10-01T09:55:48.578Z,56.90
2022-10-01T09:58:14.835Z,55.85
2022-10-01T10:00:41.495Z,136.20
2022-10-01T10:03:11.209Z,77.82
2022-10-01T10:05:38.083Z,45.95
2022-10-01T10:08:04.571Z,49.10
2022-10-01T10:10:30.851Z,48.30
2022-10-01T10:12:57.404Z,50.28
2022-10-01T10:15:26.125Z,47.85
2022-10-01T10:17:52.478Z,59.65
2022-10-01T10:20:18.818Z,92.00
2022-10-01T10:22:45.081Z,90.60
2022-10-01T10:25:11.322Z,69.35
2022-10-01T10:27:37.591Z,47.45
2022-10-01T10:30:04.067Z,59.22
2022-10-01T10:32:30.329Z,59.72
2022-10-01T10:35:02.026Z,50.28
2022-10-01T10:37:29.299Z,55.78
2022-10-01T10:39:55.555Z,57.20
2022-10-01T10:42:23.030Z,48.40
2022-10-01T10:44:49.291Z,49.50
2022-10-01T10:47:15.571Z,46.70
2022-10-01T10:49:41.831Z,56.53
2022-10-01T10:52:08.225Z,62.78
2022-10-01T10:54:37.511Z,49.75
2022-10-01T10:57:03.776Z,50.42
2022-10-01T10:59:31.642Z,51.90
2022-10-01T11:01:58.018Z,53.53
2022-10-01T11:04:24.958Z,78.28
2022-10-01T11:06:51.237Z,54.55
2022-10-01T11:09:17.499Z,52.10
2022-10-01T11:11:43.800Z,52.05
2022-10-01T11:14:10.301Z,59.08
2022-10-01T11:16:37.122Z,64.53
2022-10-01T11:19:03.595Z,57.30
2022-10-01T11:21:29.876Z,55.55
2022-10-01T11:23:56.210Z,46.63
2022-10-01T11:26:22.479Z,51.53
2022-10-01T11:28:48.736Z,72.70
2022-10-01T11:31:15.058Z,47.88
2022-10-01T11:33:44.865Z,58.25
2022-10-01T11:36:11.155Z,80.40
2022-10-01T11:38:37.783Z,58.58
2022-10-01T11:41:04.227Z,80.60
2022-10-01T11:43:30.483Z,101.32
2022-10-01T11:45:56.787Z,92.78
2022-10-01T11:48:25.448Z,55.03
2022-10-01T11:50:51.692Z,74.35
2022-10-01T11:53:18.091Z,127.13
2022-10-01T11:56:02.882Z,101.18
2022-10-01T11:58:47.684Z,49.78
2022-10-01T12:01:14.187Z,46.35
2022-10-01T12:03:40.444Z,46.10
2022-10-01T12:06:09.355Z,48.42
2022-10-01T12:08:36.580Z,55.60
2022-10-01T12:11:02.834Z,55.28
2022-10-01T12:13:29.139Z,56.78
2022-10-01T12:15:56.695Z,50.78
2022-10-01T12:18:22.986Z,45.50
2022-10-01T12:20:49.255Z,47.90
2022-10-01T12:23:17.780Z,73.43
2022-10-01T12:25:44.032Z,56.80
2022-10-01T12:28:11.326Z,44.30
2022-10-01T12:30:37.626Z,50.08
2022-10-01T12:33:04.753Z,46.88
2022-10-01T12:35:35.268Z,53.40
2022-10-01T12:38:01.545Z,56.60
2022-10-01T12:40:30.483Z,85.97
2022-10-01T12:42:59.885Z,50.15
2022-10-01T12:45:28.948Z,47.95
2022-10-01T12:47:55.214Z,67.13
2022-10-01T12:50:21.775Z,70.15
2022-10-01T12:52:48.032Z,83.15
2022-10-01T12:55:14.298Z,53.92
2022-10-01T12:57:40.748Z,53.03
2022-10-01T13:00:07.893Z,55.15
2022-10-01T13:02:34.220Z,70.07
2022-10-01T13:05:00.482Z,79.78
2022-10-01T13:07:26.961Z,69.53
2022-10-01T13:09:53.231Z,56.13
2022-10-01T13:12:19.491Z,58.28
2022-10-01T13:14:45.733Z,77.13
2022-10-01T13:17:12.058Z,79.38
2022-10-01T13:19:38.320Z,87.05
2022-10-01T13:22:08.560Z,86.65
2022-10-01T13:24:34.854Z,88.40
2022-10-01T13:27:01.333Z,94.05
2022-10-01T13:29:27.582Z,102.50
2022-10-01T13:31:55.063Z,105.18
2022-10-01T13:34:22.023Z,109.05
2022-10-01T13:36:48.311Z,85.70
2022-10-01T13:39:14.577Z,80.15
2022-10-01T13:41:40.820Z,74.75
2022-10-01T13:44:07.929Z,86.72
2022-10-01T13:46:34.365Z,89.93
2022-10-01T13:49:00.796Z,98.55
2022-10-01T13:51:27.047Z,104.72
2022-10-01T13:53:53.412Z,107.72
2022-10-01T13:56:19.662Z,106.05
2022-10-01T13:58:46.004Z,104.07
2022-10-01T14:01:15.024Z,106.57
2022-10-01T14:03:42.454Z,106.38
2022-10-01T14:06:08.699Z,93.32
2022-10-01T14:08:35.079Z,95.40
2022-10-01T14:11:20.182Z,104.93
2022-10-01T14:14:04.946Z,97.20
2022-10-01T14:16:31.645Z,100.68
2022-10-01T14:18:58.177Z,105.18
2022-10-01T14:21:25.691Z,104.82
2022-10-01T14:23:51.939Z,106.43
2022-10-01T14:26:18.242Z,102.68
2022-10-01T14:28:44.488Z,114.78
2022-10-01T14:31:10.786Z,129.00
2022-10-01T14:33:37.178Z,126.20
2022-10-01T14:36:03.439Z,129.43
2022-10-01T14:38:29.758Z,140.15
2022-10-01T14:40:56.034Z,140.75
2022-10-01T14:43:22.311Z,136.18
2022-10-01T14:45:48.591Z,139.98
2022-10-01T14:48:14.875Z,140.93
2022-10-01T14:50:41.118Z,134.82
2022-10-01T14:53:08.611Z,122.13
2022-10-01T14:55:34.864Z,125.70
2022-10-01T14:58:01.148Z,130.35
2022-10-01T15:00:27.701Z,116.97
2022-10-01T15:02:53.983Z,113.97
2022-10-01T15:05:20.556Z,109.60
2022-10-01T15:07:47.253Z,108.00
2022-10-01T15:10:13.520Z,108.55
2022-10-01T15:12:39.814Z,109.82
2022-10-01T15:15:06.074Z,97.30
2022-10-01T15:17:32.346Z,105.82
2022-10-01T15:19:58.655Z,105.80
2022-10-01T15:22:26.224Z,106.20
2022-10-01T15:24:52.753Z,106.97
2022-10-01T15:27:18.997Z,112.05
2022-10-01T15:29:45.279Z,104.25
2022-10-01T15:32:11.814Z,106.65
2022-10-01T15:34:38.204Z,101.53
2022-10-01T15:37:04.458Z,90.53
2022-10-01T15:39:30.717Z,108.57
2022-10-01T15:41:56.979Z,116.40
2022-10-01T15:44:23.233Z,124.45
2022-10-01T15:46:49.504Z,137.07
2022-10-01T15:49:15.895Z,139.85
2022-10-01T15:51:42.154Z,182.38
2022-10-01T15:54:08.731Z,115.88
2022-10-01T15:56:35.494Z,139.93
2022-10-01T15:59:02.027Z,102.40
2022-10-01T16:01:28.324Z,56.65
2022-10-01T16:03:54.674Z,113.28
2022-10-01T16:06:20.958Z,189.93
2022-10-01T16:08:47.370Z,61.47
2022-10-01T16:11:13.645Z,54.78
2022-10-01T16:13:39.896Z,63.58
2022-10-01T16:16:06.684Z,68.30
2022-10-01T16:18:34.685Z,70.60
2022-10-01T16:21:00.942Z,65.75
2022-10-01T16:23:27.195Z,66.28
2022-10-01T16:25:53.484Z,73.63
2022-10-01T16:28:19.833Z,60.13
2022-10-01T16:30:46.137Z,58.88
2022-10-01T16:33:12.401Z,92.88
2022-10-01T16:35:40.650Z,141.02
2022-10-01T16:38:08.275Z,73.85
2022-10-01T16:40:34.580Z,51.17
2022-10-01T16:43:00.822Z,46.75
2022-10-01T16:45:27.741Z,150.25
2022-10-01T16:47:54.151Z,95.28
2022-10-01T16:50:21.344Z,75.35
2022-10-01T16:52:47.600Z,72.85
2022-10-01T16:55:13.860Z,110.70
2022-10-01T16:57:40.644Z,103.75
2022-10-01T17:00:06.908Z,94.53
2022-10-01T17:02:33.167Z,97.05
2022-10-01T17:05:00.769Z,105.15
2022-10-01T17:07:27.021Z,99.70
2022-10-01T17:09:53.287Z,97.22
2022-10-01T17:12:19.706Z,96.13
2022-10-01T17:14:45.972Z,110.75
2022-10-01T17:17:12.219Z,112.40
2022-10-01T17:19:38.507Z,102.28
2022-10-01T17:22:04.755Z,83.93
2022-10-01T17:24:32.565Z,97.10
2022-10-01T17:26:58.820Z,90.40
2022-10-01T17:29:25.082Z,159.88
2022-10-01T17:31:53.143Z,78.00
2022-10-01T17:34:20.512Z,66.50
2022-10-01T17:36:46.763Z,50.70
2022-10-01T17:39:13.018Z,49.63
2022-10-01T17:41:39.307Z,50.22
2022-10-01T17:44:05.566Z,81.85
2022-10-01T17:46:31.915Z,121.00
2022-10-01T17:48:58.387Z,81.50
2022-10-01T17:51:25.741Z,65.53
2022-10-01T17:53:52.601Z,56.47
2022-10-01T17:56:18.850Z,57.63
2022-10-01T17:58:46.062Z,66.03
2022-10-01T18:01:13.382Z,81.18
2022-10-01T18:03:39.799Z,78.37
2022-10-01T18:06:07.538Z,76.53
2022-10-01T18:08:54.123Z,78.13
2022-10-01T18:11:20.287Z,73.45
2022-10-01T18:13:46.564Z,62.85
2022-10-01T18:16:16.056Z,62.42
2022-10-01T18:21:32.678Z,70.05
2022-10-01T18:24:03.427Z,60.75
2022-10-01T18:26:30.642Z,51.47
2022-10-01T18:28:56.918Z,59.42
2022-10-01T18:31:23.264Z,65.60
2022-10-01T18:33:49.647Z,56.70
2022-10-01T18:36:15.939Z,46.17
2022-10-01T18:38:42.833Z,61.05
2022-10-01T18:41:09.953Z,81.07
2022-10-01T18:43:36.198Z,69.37
2022-10-01T18:46:02.512Z,54.45
2022-10-01T18:48:28.906Z,60.88
2022-10-01T18:50:55.156Z,51.75
2022-10-01T18:53:21.417Z,59.92
2022-10-01T18:55:47.668Z,69.57
2022-10-01T18:58:14.978Z,61.17
2022-10-01T19:00:41.653Z,52.50
2022-10-01T19:03:08.030Z,54.00
2022-10-01T19:05:34.345Z,50.60
2022-10-01T19:08:00.624Z,60.13
2022-10-01T19:10:26.879Z,69.20
2022-10-01T19:12:53.141Z,67.13
2022-10-01T19:15:19.386Z,60.65
2022-10-01T19:17:45.675Z,53.47
2022-10-01T19:20:11.968Z,47.00
2022-10-01T19:22:38.238Z,46.33
2022-10-01T19:25:04.491Z,46.72
2022-10-01T19:27:30.759Z,44.88
2022-10-01T19:29:57.442Z,44.03
2022-10-01T19:32:23.728Z,42.53
2022-10-01T19:34:49.984Z,47.22
2022-10-01T19:37:16.262Z,45.78
2022-10-01T19:39:42.539Z,44.95
2022-10-01T19:42:08.798Z,44.53
2022-10-01T19:44:35.067Z,44.78
2022-10-01T19:47:01.588Z,43.53
2022-10-01T19:49:27.893Z,46.72
2022-10-01T19:51:54.163Z,45.97
2022-10-01T19:54:21.041Z,47.30
2022-10-01T19:56:47.301Z,47.72
2022-10-01T19:59:14.490Z,48.67
2022-10-01T20:01:40.777Z,47.33
2022-10-01T20:04:07.075Z,46.20
2022-10-01T20:06:33.639Z,46.75
2022-10-01T20:09:00.174Z,42.30
2022-10-01T20:11:26.413Z,46.38
2022-10-01T20:13:52.674Z,71.63
2022-10-01T20:16:19.190Z,60.30
2022-10-01T20:18:45.495Z,60.63
2022-10-01T20:21:11.779Z,55.33
2022-10-01T20:23:38.667Z,51.35
2022-10-01T20:26:05.139Z,59.38
2022-10-01T20:28:31.430Z,49.28
2022-10-01T20:30:58.252Z,46.60
2022-10-01T20:33:24.564Z,52.47
2022-10-01T20:35:50.835Z,50.45
2022-10-01T20:38:17.352Z,53.33
2022-10-01T20:40:43.866Z,66.32
2022-10-01T20:43:10.611Z,64.07
2022-10-01T20:45:36.897Z,63.75
2022-10-01T20:48:03.233Z,52.13
2022-10-01T20:50:29.504Z,55.45
2022-10-01T20:52:56.148Z,58.50
2022-10-01T20:55:29.074Z,63.20
2022-10-01T20:57:55.724Z,59.83
2022-10-01T21:00:23.162Z,60.97
2022-10-01T21:02:50.899Z,62.88
2022-10-01T21:05:17.143Z,65.63
2022-10-01T21:07:43.406Z,63.78
2022-10-01T21:10:09.719Z,64.38
2022-10-01T21:12:36.108Z,67.78
2022-10-01T21:15:02.452Z,72.22
2022-10-01T21:17:28.739Z,53.80
2022-10-01T21:19:54.996Z,56.80
2022-10-01T21:22:21.292Z,59.00
2022-10-01T21:24:47.571Z,53.80
2022-10-01T21:27:13.829Z,51.28
2022-10-01T21:29:40.094Z,47.80
2022-10-01T21:32:06.351Z,56.90
2022-10-01T21:34:32.606Z,100.22
2022-10-01T21:36:58.846Z,47.72
2022-10-01T21:39:25.108Z,49.35
2022-10-01T21:41:53.577Z,56.15
2022-10-01T21:44:19.867Z,45.95
2022-10-01T21:46:46.123Z,53.63
2022-10-01T21:49:13.439Z,49.83
2022-10-01T21:51:39.707Z,52.88
2022-10-01T21:54:05.976Z,55.58
2022-10-01T21:56:32.230Z,55.03
2022-10-01T21:58:58.514Z,62.47
2022-10-01T22:01:24.842Z,128.45
2022-10-01T22:03:51.264Z,122.00
2022-10-01T22:06:17.510Z,125.43
2022-10-01T22:08:43.768Z,108.18
2022-10-01T22:11:10.043Z,118.75
2022-10-01T22:13:36.303Z,130.30
2022-10-01T22:16:02.662Z,117.97
2022-10-01T22:18:29.007Z,121.32
2022-10-01T22:20:55.255Z,121.40
2022-10-01T22:23:21.521Z,85.47
2022-10-01T22:25:47.813Z,53.15
2022-10-01T22:28:14.124Z,52.15
2022-10-01T22:30:40.475Z,92.70
2022-10-01T22:33:06.752Z,47.60
2022-10-01T22:35:32.999Z,58.75
2022-10-01T22:37:59.395Z,55.45
2022-10-01T22:40:25.636Z,70.03
2022-10-01T22:42:52.023Z,65.53
2022-10-01T22:45:18.288Z,52.75
2022-10-01T22:47:44.550Z,69.75
2022-10-01T22:50:10.816Z,79.93
2022-10-01T22:52:37.092Z,68.72
2022-10-01T22:55:03.358Z,60.92
2022-10-01T22:57:29.603Z,60.55
2022-10-01T22:59:55.878Z,62.45
2022-10-01T23:02:22.218Z,59.45
2022-10-01T23:04:48.490Z,58.58
2022-10-01T23:07:14.751Z,61.03
2022-10-01T23:09:40.999Z,60.58
2022-10-01T23:12:07.243Z,57.13
2022-10-01T23:14:33.486Z,58.63
2022-10-01T23:16:59.887Z,60.35
2022-10-01T23:19:26.147Z,63.97
2022-10-01T23:21:52.460Z,61.42
2022-10-01T23:24:18.719Z,56.28
2022-10-01T23:26:44.965Z,58.42
2022-10-01T23:29:11.223Z,60.67
2022-10-01T23:31:37.579Z,61.92
2022-10-01T23:34:03.864Z,56.42
2022-10-01T23:36:30.123Z,64.20
2022-10-01T23:38:57.173Z,68.10
2022-10-01T23:41:23.417Z,78.18
2022-10-01T23:43:49.827Z,93.32
2022-10-01T23:46:16.166Z,110.80
2022-10-01T23:48:42.456Z,115.85
2022-10-01T23:51:08.720Z,126.93
2022-10-01T23:53:34.982Z,118.45
2022-10-01T23:56:19.996Z,115.68
2022-10-01T23:58:46.415Z,115.72
